Time;durP1;ratioP1;P1;durP2;ratioP2;P2;SDS_P1;SDS_P2;PMS_P1;PMS_P2;Temp;Humidity;BMP_temperature;BMP_pressure;BME280_temperature;BME280_humidity;BME280_pressure;Samples;Min_cycle;Max_cycle;Signal;HPM_P1;HPM_P2
2023/12/04 00:00:07;;;;;;;15.32;7.97;;;0.90;99.90;;;;;;4978751;28;20041;-78
2023/12/04 00:02:33;;;;;;;15.05;8.00;;;0.90;99.90;;;;;;4998424;28;20592;-79
2023/12/04 00:04:58;;;;;;;14.48;8.07;;;0.90;99.90;;;;;;4960043;28;20046;-79
2023/12/04 00:07:24;;;;;;;16.70;8.80;;;0.90;99.90;;;;;;4988883;28;20022;-79
2023/12/04 00:09:49;;;;;;;19.48;9.45;;;0.90;99.90;;;;;;4964619;28;20042;-79
2023/12/04 00:12:15;;;;;;;14.65;7.22;;;0.90;99.90;;;;;;4954049;28;20029;-79
2023/12/04 00:14:40;;;;;;;18.00;8.52;;;0.90;99.90;;;;;;4981496;28;20056;-77
2023/12/04 00:17:06;;;;;;;12.77;7.03;;;0.90;99.90;;;;;;4979239;28;20392;-77
2023/12/04 00:19:32;;;;;;;16.52;8.82;;;0.90;99.90;;;;;;4978242;28;20516;-78
2023/12/04 00:21:57;;;;;;;19.35;8.32;;;0.90;99.90;;;;;;4994544;28;20559;-77
2023/12/04 00:24:23;;;;;;;15.10;8.10;;;0.90;99.90;;;;;;4995194;28;20045;-78
2023/12/04 00:26:48;;;;;;;13.82;6.60;;;0.90;99.90;;;;;;4983971;28;20211;-79
2023/12/04 00:29:14;;;;;;;19.48;10.45;;;0.90;99.90;;;;;;4993750;28;20046;-78
2023/12/04 00:31:39;;;;;;;19.33;10.05;;;0.90;99.90;;;;;;4991882;28;20115;-77
2023/12/04 00:34:05;;;;;;;21.00;10.00;;;0.80;99.90;;;;;;4966940;28;20049;-78
2023/12/04 00:36:31;;;;;;;10.70;4.88;;;0.90;99.90;;;;;;4999861;28;20040;-77
2023/12/04 00:38:56;;;;;;;15.00;8.15;;;0.90;99.90;;;;;;4980458;28;20041;-79
2023/12/04 00:41:22;;;;;;;10.45;5.47;;;0.80;99.90;;;;;;5015342;28;20026;-78
2023/12/04 00:43:47;;;;;;;13.10;6.55;;;0.90;99.90;;;;;;4987866;28;20053;-80
2023/12/04 00:46:13;;;;;;;13.20;7.35;;;0.90;99.90;;;;;;4999520;28;20042;-80
2023/12/04 00:48:38;;;;;;;15.10;7.32;;;0.90;99.90;;;;;;5002900;28;20034;-80
2023/12/04 00:51:04;;;;;;;19.77;9.55;;;0.80;99.90;;;;;;4969815;28;20035;-81
2023/12/04 00:53:30;;;;;;;19.38;10.60;;;0.80;99.90;;;;;;4988451;28;20038;-81
2023/12/04 00:55:55;;;;;;;16.95;9.82;;;0.90;99.90;;;;;;5000302;28;20080;-80
2023/12/04 00:58:21;;;;;;;16.85;7.85;;;0.90;99.90;;;;;;5001715;28;20044;-80
2023/12/04 01:00:48;;;;;;;11.13;5.22;;;0.90;99.90;;;;;;5001424;28;20093;-80
2023/12/04 01:03:14;;;;;;;15.50;8.85;;;0.90;99.90;;;;;;4985026;28;20126;-80
2023/12/04 01:05:40;;;;;;;13.95;7.35;;;0.90;99.90;;;;;;5000169;28;20608;-80
2023/12/04 01:08:05;;;;;;;17.38;9.68;;;0.90;99.90;;;;;;4983130;28;20385;-81
2023/12/04 01:10:31;;;;;;;14.25;7.57;;;0.90;99.90;;;;;;5000500;28;20030;-80
2023/12/04 01:12:56;;;;;;;19.38;9.07;;;0.90;99.90;;;;;;4971342;28;20050;-80
2023/12/04 01:15:23;;;;;;;15.63;8.05;;;0.90;99.90;;;;;;4987041;28;20034;-80
2023/12/04 01:17:49;;;;;;;15.80;7.60;;;0.90;99.90;;;;;;5006865;28;20034;-81
2023/12/04 01:20:15;;;;;;;14.93;8.93;;;0.80;99.90;;;;;;5014142;28;20375;-81
2023/12/04 01:22:40;;;;;;;14.27;7.70;;;0.90;99.90;;;;;;5000302;28;20037;-80
2023/12/04 01:25:06;;;;;;;14.23;6.88;;;0.90;99.90;;;;;;5002450;28;20030;-80
2023/12/04 01:27:35;;;;;;;15.05;7.40;;;0.90;99.90;;;;;;4998000;28;20029;-80
2023/12/04 01:30:00;;;;;;;11.00;5.38;;;0.90;99.90;;;;;;5000609;28;20960;-80
2023/12/04 01:32:26;;;;;;;9.75;5.32;;;0.90;99.90;;;;;;4998722;28;20036;-80
2023/12/04 01:34:51;;;;;;;13.52;7.90;;;0.80;99.90;;;;;;4969440;28;20030;-80
2023/12/04 01:37:17;;;;;;;7.03;4.43;;;0.80;99.90;;;;;;4982487;28;20129;-81
2023/12/04 01:39:42;;;;;;;4.15;2.75;;;0.90;99.90;;;;;;5003565;28;20466;-81
2023/12/04 01:42:08;;;;;;;11.57;4.93;;;0.90;99.90;;;;;;5000394;28;20440;-80
2023/12/04 01:44:34;;;;;;;12.05;4.55;;;0.90;99.90;;;;;;4986171;28;20425;-80
2023/12/04 01:46:59;;;;;;;12.23;6.65;;;0.90;99.90;;;;;;4996690;28;20515;-81
2023/12/04 01:49:24;;;;;;;13.68;6.95;;;0.90;99.90;;;;;;5004091;28;20022;-80
2023/12/04 01:51:50;;;;;;;9.88;5.82;;;0.80;99.90;;;;;;5001960;28;20041;-80
2023/12/04 01:54:16;;;;;;;17.67;8.13;;;0.90;99.90;;;;;;4996682;28;20034;-78
2023/12/04 01:56:41;;;;;;;14.68;6.97;;;0.80;99.90;;;;;;4997750;28;20049;-78
2023/12/04 01:59:07;;;;;;;11.65;5.68;;;0.90;99.90;;;;;;4975449;28;20019;-78
2023/12/04 02:01:32;;;;;;;14.57;8.38;;;0.90;99.90;;;;;;4967362;28;20027;-79
2023/12/04 02:03:59;;;;;;;13.13;7.15;;;0.90;99.90;;;;;;4999549;28;20030;-79
2023/12/04 02:06:25;;;;;;;8.45;3.55;;;0.90;99.90;;;;;;4968924;28;20122;-78
2023/12/04 02:08:50;;;;;;;15.27;7.13;;;0.90;99.90;;;;;;4985931;28;20578;-77
2023/12/04 02:11:16;;;;;;;10.43;5.97;;;0.90;99.90;;;;;;4999376;28;20092;-77
2023/12/04 02:13:41;;;;;;;12.93;6.70;;;0.80;99.90;;;;;;5001037;28;20042;-78
2023/12/04 02:16:09;;;;;;;13.38;6.53;;;0.90;99.90;;;;;;4966386;28;20080;-78
2023/12/04 02:18:35;;;;;;;9.68;4.57;;;0.90;99.90;;;;;;4981346;28;20449;-78
2023/12/04 02:21:01;;;;;;;12.68;6.80;;;0.90;99.90;;;;;;4985743;28;20071;-79
2023/12/04 02:23:27;;;;;;;12.38;6.70;;;0.90;99.90;;;;;;4996958;28;20038;-77
2023/12/04 02:25:54;;;;;;;8.18;4.50;;;0.90;99.90;;;;;;4994147;28;20431;-79
2023/12/04 02:28:20;;;;;;;10.43;5.18;;;0.90;99.90;;;;;;4994706;28;20779;-79
2023/12/04 02:30:46;;;;;;;8.55;3.90;;;0.90;99.90;;;;;;4994994;28;20038;-78
2023/12/04 02:33:11;;;;;;;11.32;6.45;;;0.90;99.90;;;;;;4998991;28;20030;-78
2023/12/04 02:35:37;;;;;;;4.45;2.92;;;0.90;99.90;;;;;;4985919;28;20469;-78
2023/12/04 02:38:03;;;;;;;10.98;5.30;;;0.90;99.90;;;;;;4996487;28;20042;-78
2023/12/04 02:40:28;;;;;;;12.55;4.90;;;0.90;99.90;;;;;;4982891;28;20083;-77
2023/12/04 02:42:54;;;;;;;12.25;6.32;;;0.80;99.90;;;;;;4997217;28;20027;-78
2023/12/04 02:45:19;;;;;;;10.63;4.00;;;0.90;99.90;;;;;;4981232;28;20027;-77
2023/12/04 02:47:45;;;;;;;6.78;3.78;;;0.90;99.90;;;;;;4999085;28;20432;-79
2023/12/04 02:50:10;;;;;;;6.03;3.42;;;0.90;99.90;;;;;;4981177;28;20026;-78
2023/12/04 02:52:36;;;;;;;11.95;5.68;;;0.90;99.90;;;;;;5001467;28;20088;-78
2023/12/04 02:55:02;;;;;;;12.32;5.90;;;0.90;99.90;;;;;;4986245;28;20045;-78
2023/12/04 02:57:27;;;;;;;7.65;4.50;;;0.90;99.90;;;;;;4984423;28;20128;-78
2023/12/04 02:59:53;;;;;;;9.60;4.32;;;0.90;99.90;;;;;;4984247;28;20034;-78
2023/12/04 03:02:18;;;;;;;9.77;5.80;;;0.90;99.90;;;;;;4978765;28;20033;-79
2023/12/04 03:04:45;;;;;;;8.88;4.63;;;0.90;99.90;;;;;;5000457;28;20042;-80
2023/12/04 03:07:10;;;;;;;8.05;4.25;;;0.90;99.90;;;;;;4985714;28;20135;-81
2023/12/04 03:09:36;;;;;;;12.63;6.30;;;0.90;99.90;;;;;;5001622;28;20501;-79
2023/12/04 03:12:02;;;;;;;10.93;6.22;;;0.90;99.90;;;;;;5001227;28;20066;-79
2023/12/04 03:14:27;;;;;;;11.25;6.28;;;0.90;99.90;;;;;;5001117;28;20065;-80
2023/12/04 03:16:53;;;;;;;11.38;5.60;;;0.90;99.90;;;;;;4986712;28;20478;-81
2023/12/04 03:19:18;;;;;;;9.02;4.45;;;0.90;99.90;;;;;;4953458;28;20030;-79
2023/12/04 03:21:44;;;;;;;12.20;6.93;;;0.80;99.90;;;;;;4998715;28;20035;-81
2023/12/04 03:24:09;;;;;;;7.82;4.28;;;0.90;99.90;;;;;;5000946;28;20045;-82
2023/12/04 03:26:35;;;;;;;8.32;4.40;;;0.90;99.90;;;;;;4997769;28;20033;-81
2023/12/04 03:29:00;;;;;;;7.13;4.28;;;0.90;99.90;;;;;;4988983;28;20030;-81
2023/12/04 03:31:28;;;;;;;11.77;6.95;;;0.90;99.90;;;;;;4980183;28;20030;-81
2023/12/04 03:33:53;;;;;;;10.25;4.43;;;0.90;99.90;;;;;;4973751;28;20520;-82
2023/12/04 03:36:19;;;;;;;11.23;5.00;;;0.90;99.90;;;;;;4988991;28;20038;-80
2023/12/04 03:38:44;;;;;;;9.57;5.63;;;0.90;99.90;;;;;;4983606;28;20091;-81
2023/12/04 03:41:16;;;;;;;9.93;5.38;;;0.90;99.90;;;;;;4998621;28;20026;-82
2023/12/04 03:43:41;;;;;;;9.98;5.47;;;0.90;99.90;;;;;;4999567;28;20068;-80
2023/12/04 03:46:07;;;;;;;9.07;5.45;;;0.90;99.90;;;;;;4984467;28;20054;-80
2023/12/04 03:48:33;;;;;;;5.43;3.25;;;0.90;99.90;;;;;;4993739;28;20035;-80
2023/12/04 03:50:59;;;;;;;7.40;4.47;;;0.90;99.90;;;;;;4982208;28;20491;-80
2023/12/04 03:53:25;;;;;;;8.85;4.97;;;0.90;99.90;;;;;;4984417;28;20040;-81
2023/12/04 03:55:50;;;;;;;5.20;3.03;;;1.00;99.90;;;;;;4964934;28;20113;-81
2023/12/04 03:58:16;;;;;;;8.48;4.38;;;1.00;99.90;;;;;;4993787;28;20022;-80
2023/12/04 04:00:43;;;;;;;4.88;3.05;;;0.90;99.90;;;;;;4972462;28;20076;-81
2023/12/04 04:03:09;;;;;;;7.78;4.10;;;1.00;99.90;;;;;;4986480;28;20072;-80
2023/12/04 04:05:34;;;;;;;4.65;2.58;;;1.00;99.90;;;;;;4985307;28;20065;-80
2023/12/04 04:08:02;;;;;;;5.10;2.50;;;1.00;99.90;;;;;;4984074;28;20042;-80
2023/12/04 04:10:28;;;;;;;5.00;2.67;;;1.00;99.90;;;;;;5000087;28;20050;-81
2023/12/04 04:12:53;;;;;;;9.70;4.97;;;1.00;99.90;;;;;;4985603;28;20054;-81
2023/12/04 04:15:19;;;;;;;4.28;2.85;;;1.00;99.90;;;;;;5004288;28;20041;-81
2023/12/04 04:17:44;;;;;;;8.90;3.80;;;1.00;99.90;;;;;;5001898;28;20072;-81
2023/12/04 04:20:12;;;;;;;7.03;3.63;;;0.90;99.90;;;;;;5002821;28;20025;-80
2023/12/04 04:22:39;;;;;;;7.88;4.03;;;1.00;99.90;;;;;;5004980;28;20038;-80
2023/12/04 04:25:06;;;;;;;8.27;4.28;;;0.90;99.90;;;;;;5005699;28;20505;-80
2023/12/04 04:27:31;;;;;;;9.85;4.65;;;1.00;99.90;;;;;;4987582;28;20026;-80
2023/12/04 04:29:57;;;;;;;8.52;4.43;;;1.00;99.90;;;;;;5001202;28;20046;-80
2023/12/04 04:32:22;;;;;;;5.93;3.60;;;0.90;99.90;;;;;;4990615;28;20033;-80
2023/12/04 04:34:48;;;;;;;5.93;3.58;;;1.00;99.90;;;;;;4970035;28;20049;-80
2023/12/04 04:37:14;;;;;;;10.10;4.47;;;1.00;99.90;;;;;;5002180;28;20079;-80
2023/12/04 04:39:40;;;;;;;8.07;4.45;;;0.90;99.90;;;;;;4989706;28;21343;-79
2023/12/04 04:42:06;;;;;;;7.93;4.10;;;0.90;99.90;;;;;;5008621;28;20030;-80
2023/12/04 04:44:31;;;;;;;5.78;3.20;;;0.90;99.90;;;;;;4984908;28;20089;-80
2023/12/04 04:46:57;;;;;;;8.77;4.65;;;0.90;99.90;;;;;;4986963;28;20058;-81
2023/12/04 04:49:22;;;;;;;8.10;4.30;;;0.90;99.90;;;;;;4976614;28;20133;-80
2023/12/04 04:51:48;;;;;;;7.85;4.03;;;0.90;99.90;;;;;;4971830;28;20042;-81
2023/12/04 04:54:13;;;;;;;6.53;3.50;;;0.90;99.90;;;;;;5000896;28;20068;-80
2023/12/04 04:56:39;;;;;;;6.05;3.97;;;0.90;99.90;;;;;;4965351;28;20030;-80
2023/12/04 04:59:04;;;;;;;6.57;3.08;;;0.90;99.90;;;;;;4991649;28;20038;-80
2023/12/04 05:01:31;;;;;;;8.18;4.20;;;1.00;99.90;;;;;;4971429;28;20038;-81
2023/12/04 05:03:56;;;;;;;6.25;3.85;;;1.00;99.90;;;;;;5003054;28;20490;-80
2023/12/04 05:06:22;;;;;;;7.78;4.38;;;0.90;99.90;;;;;;4995062;28;20038;-79
2023/12/04 05:08:50;;;;;;;9.25;5.03;;;0.90;99.90;;;;;;4999253;28;20034;-80
2023/12/04 05:11:16;;;;;;;7.72;4.45;;;0.90;99.90;;;;;;4982258;28;20684;-81
2023/12/04 05:13:41;;;;;;;6.60;3.92;;;0.90;99.90;;;;;;5010209;28;20034;-80
2023/12/04 05:16:07;;;;;;;8.88;4.28;;;0.90;99.90;;;;;;4963387;28;20513;-81
2023/12/04 05:18:32;;;;;;;6.70;3.45;;;0.80;99.90;;;;;;4983296;28;20061;-81
2023/12/04 05:20:58;;;;;;;5.93;3.78;;;0.90;99.90;;;;;;4983422;28;20034;-81
2023/12/04 05:23:24;;;;;;;7.40;4.05;;;1.00;99.90;;;;;;5000632;28;20057;-81
2023/12/04 05:25:49;;;;;;;10.13;4.45;;;1.00;99.90;;;;;;4989772;28;20049;-80
2023/12/04 05:28:15;;;;;;;4.72;2.65;;;0.90;99.90;;;;;;5000458;28;20061;-82
2023/12/04 05:30:40;;;;;;;7.38;3.45;;;0.90;99.90;;;;;;5003062;28;20036;-80
2023/12/04 05:33:06;;;;;;;4.30;2.42;;;0.90;99.90;;;;;;4998317;28;20030;-80
2023/12/04 05:35:36;;;;;;;8.95;4.93;;;0.90;99.90;;;;;;4998185;28;20437;-80
2023/12/04 05:38:01;;;;;;;11.00;4.82;;;0.80;99.90;;;;;;5000538;28;20031;-80
2023/12/04 05:40:27;;;;;;;8.73;4.60;;;0.90;99.90;;;;;;4985409;28;20053;-80
2023/12/04 05:42:52;;;;;;;7.97;4.53;;;0.90;99.90;;;;;;4988779;28;20037;-80
2023/12/04 05:45:18;;;;;;;7.10;4.03;;;0.90;99.90;;;;;;4985633;28;20493;-81
2023/12/04 05:47:44;;;;;;;7.78;4.05;;;0.90;99.90;;;;;;4997501;28;20535;-80
2023/12/04 05:50:09;;;;;;;3.85;2.85;;;0.90;99.90;;;;;;4998702;28;20058;-81
2023/12/04 05:52:35;;;;;;;10.05;4.60;;;0.90;99.90;;;;;;4998937;28;20434;-80
2023/12/04 05:55:00;;;;;;;12.05;6.32;;;0.90;99.90;;;;;;4987157;28;20125;-80
2023/12/04 05:57:26;;;;;;;11.20;5.35;;;0.90;99.90;;;;;;4996477;28;20121;-80
2023/12/04 05:59:51;;;;;;;8.07;4.43;;;0.90;99.90;;;;;;4998398;28;20453;-80
2023/12/04 06:02:17;;;;;;;8.77;5.07;;;0.90;99.90;;;;;;4991588;28;20543;-80
2023/12/04 06:04:42;;;;;;;11.35;5.45;;;0.90;99.90;;;;;;4972168;28;20053;-80
2023/12/04 06:07:08;;;;;;;10.63;5.18;;;0.90;99.90;;;;;;4995676;28;20037;-79
2023/12/04 06:09:36;;;;;;;10.57;5.35;;;0.90;99.90;;;;;;5012640;28;20031;-81
2023/12/04 06:12:07;;;;;;;10.38;4.00;;;0.90;99.90;;;;;;4970833;28;20049;-80
2023/12/04 06:14:33;;;;;;;9.57;5.35;;;0.90;99.90;;;;;;4979287;28;20493;-80
2023/12/04 06:16:59;;;;;;;6.35;3.65;;;0.90;99.90;;;;;;5001118;28;20041;-80
2023/12/04 06:19:24;;;;;;;10.27;6.18;;;0.90;99.90;;;;;;4998685;28;20044;-79
2023/12/04 06:21:50;;;;;;;5.80;3.85;;;0.90;99.90;;;;;;4999202;28;20042;-81
2023/12/04 06:24:16;;;;;;;10.15;4.97;;;0.80;99.90;;;;;;5001667;28;20042;-81
2023/12/04 06:26:43;;;;;;;8.25;4.25;;;0.90;99.90;;;;;;4996743;28;20037;-81
2023/12/04 06:29:09;;;;;;;7.30;3.20;;;0.90;99.90;;;;;;4997898;28;20545;-81
2023/12/04 06:31:34;;;;;;;3.38;2.00;;;0.90;99.90;;;;;;4997872;28;20145;-81
2023/12/04 06:34:00;;;;;;;9.27;4.40;;;0.90;99.90;;;;;;4994214;28;20052;-78
2023/12/04 06:36:27;;;;;;;5.32;2.83;;;0.90;99.90;;;;;;4954253;28;20036;-78
2023/12/04 06:38:52;;;;;;;9.63;5.40;;;0.90;99.90;;;;;;4989836;28;20042;-78
2023/12/04 06:41:18;;;;;;;6.85;4.03;;;0.90;99.90;;;;;;5005316;28;20053;-78
2023/12/04 06:43:44;;;;;;;8.63;4.80;;;0.90;99.90;;;;;;4987759;28;20087;-79
2023/12/04 06:46:10;;;;;;;10.95;6.32;;;0.90;99.90;;;;;;4979373;28;20109;-78
2023/12/04 06:48:36;;;;;;;10.60;6.10;;;0.80;99.90;;;;;;4976884;28;20037;-78
2023/12/04 06:51:01;;;;;;;9.70;5.50;;;0.90;99.90;;;;;;4994893;28;20034;-79
2023/12/04 06:53:27;;;;;;;9.35;4.70;;;0.90;99.90;;;;;;4997474;28;20436;-79
2023/12/04 06:55:52;;;;;;;8.00;5.50;;;0.90;99.90;;;;;;4996600;28;20482;-79
2023/12/04 06:58:18;;;;;;;14.20;5.57;;;0.90;99.90;;;;;;4998613;28;20117;-77
2023/12/04 07:00:44;;;;;;;9.68;6.18;;;0.90;99.90;;;;;;4985394;28;20434;-78
2023/12/04 07:03:09;;;;;;;12.32;6.03;;;0.90;99.90;;;;;;4977220;28;20037;-78
2023/12/04 07:05:35;;;;;;;8.80;4.63;;;0.80;99.90;;;;;;4983654;28;20030;-78
2023/12/04 07:08:00;;;;;;;7.20;4.45;;;0.80;99.90;;;;;;4972839;28;20537;-81
2023/12/04 07:10:26;;;;;;;9.88;5.43;;;0.80;99.90;;;;;;4985344;28;20393;-79
2023/12/04 07:12:51;;;;;;;10.27;5.60;;;0.90;99.90;;;;;;4979221;28;20058;-79
2023/12/04 07:15:17;;;;;;;10.07;5.28;;;0.90;99.90;;;;;;4978474;28;20119;-77
2023/12/04 07:17:42;;;;;;;11.50;5.85;;;0.80;99.90;;;;;;4981036;28;20449;-78
2023/12/04 07:20:09;;;;;;;7.47;4.85;;;0.90;99.90;;;;;;4997787;28;20031;-77
2023/12/04 07:22:34;;;;;;;6.75;3.92;;;0.80;99.90;;;;;;4996733;28;20041;-77
2023/12/04 07:25:00;;;;;;;9.35;5.45;;;0.80;99.90;;;;;;4978003;28;20405;-77
2023/12/04 07:27:25;;;;;;;6.03;3.72;;;0.90;99.90;;;;;;4982489;28;20485;-77
2023/12/04 07:29:51;;;;;;;9.15;5.30;;;0.90;99.90;;;;;;4983019;28;20037;-77
2023/12/04 07:32:18;;;;;;;13.57;5.90;;;0.90;99.90;;;;;;4981874;28;20042;-79
2023/12/04 07:34:44;;;;;;;8.40;4.78;;;0.90;99.90;;;;;;4984659;28;20433;-77
2023/12/04 07:37:10;;;;;;;6.68;4.35;;;0.90;99.90;;;;;;4998871;28;20038;-77
2023/12/04 07:39:35;;;;;;;8.00;4.05;;;0.90;99.90;;;;;;4985183;28;20042;-78
2023/12/04 07:42:01;;;;;;;6.07;4.13;;;0.80;99.90;;;;;;4991799;28;20034;-76
2023/12/04 07:44:27;;;;;;;12.65;5.40;;;0.90;99.90;;;;;;4998837;28;20034;-80
2023/12/04 07:46:52;;;;;;;8.63;4.22;;;0.90;99.90;;;;;;4999241;28;20030;-79
2023/12/04 07:49:18;;;;;;;4.97;2.60;;;0.90;99.90;;;;;;5002442;28;20040;-79
2023/12/04 07:51:44;;;;;;;7.88;4.05;;;0.90;99.90;;;;;;5001815;28;20049;-79
2023/12/04 07:54:09;;;;;;;10.13;5.20;;;0.90;99.90;;;;;;4983907;28;20034;-80
2023/12/04 07:56:35;;;;;;;7.80;4.75;;;0.90;99.90;;;;;;4984697;28;20034;-78
2023/12/04 07:59:01;;;;;;;10.90;4.88;;;0.90;99.90;;;;;;4985136;28;20034;-80
2023/12/04 08:01:26;;;;;;;8.48;4.88;;;0.90;99.90;;;;;;5001528;28;20037;-79
2023/12/04 08:03:52;;;;;;;5.68;2.85;;;0.90;99.90;;;;;;5020139;28;20073;-80
2023/12/04 08:06:18;;;;;;;7.47;4.78;;;0.90;99.90;;;;;;5002207;28;20026;-79
2023/12/04 08:08:44;;;;;;;9.27;5.82;;;0.90;99.90;;;;;;5004611;28;20029;-79
2023/12/04 08:11:10;;;;;;;9.55;3.85;;;0.80;99.90;;;;;;4987219;28;20083;-79
2023/12/04 08:13:37;;;;;;;7.70;4.30;;;0.90;99.90;;;;;;4984743;28;20084;-79
2023/12/04 08:16:03;;;;;;;7.55;3.97;;;1.00;99.90;;;;;;4998999;28;20026;-80
2023/12/04 08:18:32;;;;;;;5.95;4.03;;;1.00;99.90;;;;;;4972419;28;20029;-79
2023/12/04 08:21:00;;;;;;;8.95;4.90;;;1.00;99.90;;;;;;4982815;28;20042;-79
2023/12/04 08:23:26;;;;;;;9.13;4.45;;;1.10;99.90;;;;;;4981448;28;22041;-79
2023/12/04 08:25:51;;;;;;;9.55;5.10;;;1.20;99.90;;;;;;4980741;28;20042;-79
2023/12/04 08:28:17;;;;;;;9.05;5.60;;;1.20;99.90;;;;;;4987875;28;20034;-77
2023/12/04 08:30:42;;;;;;;7.50;4.15;;;1.20;99.90;;;;;;4988293;28;20034;-79
2023/12/04 08:33:08;;;;;;;10.13;5.38;;;1.10;99.90;;;;;;5013810;28;20506;-78
2023/12/04 08:35:34;;;;;;;6.38;3.30;;;1.20;99.90;;;;;;5001455;28;20025;-78
2023/12/04 08:37:59;;;;;;;7.70;3.30;;;1.20;99.90;;;;;;4984713;28;20477;-79
2023/12/04 08:40:25;;;;;;;9.63;4.88;;;1.20;99.90;;;;;;5001521;28;20394;-78
2023/12/04 08:42:51;;;;;;;4.97;2.78;;;1.20;99.90;;;;;;5000693;28;20026;-78
2023/12/04 08:45:17;;;;;;;2.70;2.08;;;1.30;99.90;;;;;;5002010;28;20031;-78
2023/12/04 08:47:44;;;;;;;9.10;3.70;;;1.30;99.90;;;;;;4986855;28;20030;-78
2023/12/04 08:50:09;;;;;;;5.53;3.00;;;1.20;99.90;;;;;;4975550;28;20060;-79
2023/12/04 08:52:35;;;;;;;9.00;4.88;;;1.30;99.90;;;;;;4986699;28;20069;-79
2023/12/04 08:55:01;;;;;;;9.45;4.20;;;1.30;99.90;;;;;;5002329;28;20045;-79
2023/12/04 08:57:27;;;;;;;7.57;4.13;;;1.30;99.90;;;;;;4985710;28;20091;-79
2023/12/04 08:59:52;;;;;;;5.75;1.95;;;1.40;99.90;;;;;;4986818;28;20087;-80
2023/12/04 09:02:18;;;;;;;7.10;3.53;;;1.40;99.90;;;;;;4986771;28;20033;-79
2023/12/04 09:04:44;;;;;;;4.28;2.85;;;1.40;99.90;;;;;;5001511;28;20428;-79
2023/12/04 09:07:15;;;;;;;3.38;2.05;;;1.40;99.90;;;;;;4969635;28;20468;-79
2023/12/04 09:09:41;;;;;;;10.85;4.32;;;1.40;99.90;;;;;;5003055;28;20038;-79
2023/12/04 09:12:08;;;;;;;8.98;4.22;;;1.40;99.90;;;;;;5002832;28;20095;-79
2023/12/04 09:14:34;;;;;;;7.13;4.28;;;1.40;99.90;;;;;;4998536;28;20079;-79
2023/12/04 09:17:00;;;;;;;3.70;2.42;;;1.50;99.90;;;;;;5000674;28;20049;-79
2023/12/04 09:19:25;;;;;;;6.10;3.38;;;1.50;99.90;;;;;;4986099;28;20389;-79
2023/12/04 09:21:51;;;;;;;4.70;1.90;;;1.50;99.90;;;;;;5000455;28;20042;-79
2023/12/04 09:24:17;;;;;;;8.23;4.10;;;1.50;99.90;;;;;;4985507;28;20022;-78
2023/12/04 09:26:43;;;;;;;4.15;2.25;;;1.50;99.90;;;;;;4992746;28;20076;-79
2023/12/04 09:29:12;;;;;;;5.25;3.58;;;1.50;99.90;;;;;;4994075;28;20042;-79
2023/12/04 09:31:38;;;;;;;6.47;3.85;;;1.50;99.90;;;;;;4970516;28;21043;-78
2023/12/04 09:34:03;;;;;;;6.55;3.67;;;1.50;99.90;;;;;;4991629;28;20038;-79
2023/12/04 09:36:30;;;;;;;5.30;3.50;;;1.60;99.90;;;;;;4977910;28;20039;-78
2023/12/04 09:38:55;;;;;;;3.70;2.22;;;1.50;99.90;;;;;;4989793;28;20062;-79
2023/12/04 09:41:21;;;;;;;9.05;3.15;;;1.60;99.90;;;;;;5011068;28;20030;-79
2023/12/04 09:43:47;;;;;;;7.28;3.33;;;1.70;99.90;;;;;;5010940;28;20032;-79
2023/12/04 09:46:12;;;;;;;6.70;3.72;;;1.80;99.90;;;;;;4995958;28;20834;-77
2023/12/04 09:48:38;;;;;;;9.57;3.67;;;1.70;99.90;;;;;;5014072;28;20040;-79
2023/12/04 09:51:04;;;;;;;5.38;2.78;;;1.80;99.90;;;;;;5013164;28;20030;-79
2023/12/04 09:53:30;;;;;;;8.15;3.75;;;1.80;99.90;;;;;;4992989;28;20044;-78
2023/12/04 09:55:57;;;;;;;6.28;3.45;;;1.90;99.90;;;;;;4992515;28;20026;-79
2023/12/04 09:58:22;;;;;;;5.35;2.28;;;1.90;99.90;;;;;;5007963;28;20042;-79
2023/12/04 10:00:48;;;;;;;5.78;3.25;;;1.80;99.90;;;;;;5005041;28;20130;-79
2023/12/04 10:03:14;;;;;;;8.98;3.05;;;1.90;99.90;;;;;;5007063;28;20030;-79
2023/12/04 10:05:43;;;;;;;4.70;3.30;;;1.90;99.90;;;;;;5004121;28;20132;-78
2023/12/04 10:08:09;;;;;;;5.85;2.72;;;1.90;99.90;;;;;;4984857;28;20489;-80
2023/12/04 10:10:34;;;;;;;3.83;2.25;;;1.90;99.90;;;;;;5001844;28;20163;-79
2023/12/04 10:13:01;;;;;;;4.50;2.92;;;2.00;99.90;;;;;;5002200;28;20100;-79
2023/12/04 10:15:27;;;;;;;5.07;2.55;;;2.00;99.90;;;;;;5001444;28;20046;-79
2023/12/04 10:17:54;;;;;;;5.82;3.30;;;2.00;99.90;;;;;;5000407;28;20100;-79
2023/12/04 10:20:21;;;;;;;7.25;3.95;;;2.00;99.90;;;;;;5006206;28;20034;-80
2023/12/04 10:22:54;;;;;;;9.55;3.17;;;2.10;99.90;;;;;;4988398;28;20564;-79
2023/12/04 10:25:21;;;;;;;4.90;2.08;;;2.10;99.90;;;;;;4986309;28;20049;-80
2023/12/04 10:27:47;;;;;;;7.80;4.20;;;2.10;99.90;;;;;;5003201;28;20046;-80
2023/12/04 10:30:23;;;;;;;4.55;3.08;;;2.10;99.90;;;;;;5018002;28;20675;-80
2023/12/04 10:32:48;;;;;;;6.30;4.68;;;2.20;99.90;;;;;;4998355;28;20080;-80
2023/12/04 10:35:14;;;;;;;6.07;3.53;;;2.10;99.90;;;;;;5008864;28;20449;-80
2023/12/04 10:37:40;;;;;;;6.90;3.17;;;2.20;99.90;;;;;;4996481;28;20033;-80
2023/12/04 10:40:10;;;;;;;9.55;2.15;;;2.20;99.90;;;;;;4988957;28;20030;-79
2023/12/04 10:42:36;;;;;;;8.80;4.90;;;2.20;99.90;;;;;;4987559;28;20137;-79
2023/12/04 10:45:01;;;;;;;8.07;3.45;;;2.30;99.90;;;;;;5004455;28;20093;-80
2023/12/04 10:47:30;;;;;;;6.28;3.10;;;2.30;99.90;;;;;;5014316;28;20118;-79
2023/12/04 10:49:56;;;;;;;7.05;3.63;;;2.30;99.90;;;;;;4966548;28;20031;-79
2023/12/04 10:52:21;;;;;;;3.95;1.95;;;2.30;99.90;;;;;;5011241;28;20034;-79
2023/12/04 10:54:48;;;;;;;8.23;4.68;;;2.30;99.90;;;;;;5015083;28;20041;-80
2023/12/04 10:57:16;;;;;;;9.38;4.82;;;2.40;99.90;;;;;;4995968;28;20041;-80
2023/12/04 10:59:43;;;;;;;9.07;5.45;;;2.40;99.90;;;;;;4987153;28;20041;-80
2023/12/04 11:02:09;;;;;;;10.40;4.68;;;2.40;99.90;;;;;;4992767;28;20049;-80
2023/12/04 11:04:35;;;;;;;9.15;5.55;;;2.40;99.90;;;;;;5001873;28;20046;-80
2023/12/04 11:07:03;;;;;;;9.20;4.95;;;2.40;99.90;;;;;;5023656;28;20038;-80
2023/12/04 11:09:29;;;;;;;9.57;5.13;;;2.50;99.90;;;;;;5000529;28;20677;-79
2023/12/04 11:12:03;;;;;;;8.55;4.95;;;2.50;99.90;;;;;;5014124;28;20046;-80
2023/12/04 11:14:34;;;;;;;10.30;4.82;;;2.50;99.90;;;;;;5010503;28;20026;-77
2023/12/04 11:17:03;;;;;;;5.80;2.95;;;2.60;99.90;;;;;;4987193;28;20064;-77
2023/12/04 11:19:32;;;;;;;6.45;4.10;;;2.60;99.90;;;;;;5009477;28;20034;-76
2023/12/04 11:21:58;;;;;;;8.38;4.60;;;2.60;99.90;;;;;;5000452;28;20068;-76
2023/12/04 11:24:23;;;;;;;11.10;5.63;;;2.60;99.90;;;;;;4997094;28;20089;-78
2023/12/04 11:26:49;;;;;;;8.30;2.40;;;2.60;99.90;;;;;;5010986;28;20039;-78
2023/12/04 11:29:15;;;;;;;8.50;4.10;;;2.70;99.90;;;;;;4968874;28;20022;-80
2023/12/04 11:31:40;;;;;;;5.40;3.83;;;2.70;99.90;;;;;;4996232;28;20042;-79
2023/12/04 11:34:08;;;;;;;5.45;2.38;;;2.70;99.90;;;;;;5007750;28;20030;-78
2023/12/04 11:36:34;;;;;;;11.15;6.32;;;2.70;99.90;;;;;;4996250;28;20038;-78
2023/12/04 11:39:00;;;;;;;8.27;4.38;;;2.70;99.90;;;;;;4979733;28;20045;-77
2023/12/04 11:41:25;;;;;;;5.55;3.20;;;2.70;99.90;;;;;;4996966;28;20097;-77
2023/12/04 11:43:52;;;;;;;11.35;5.70;;;2.70;99.90;;;;;;4998042;28;20029;-76
2023/12/04 11:46:23;;;;;;;10.07;5.40;;;2.70;99.90;;;;;;4994857;28;20397;-77
2023/12/04 11:48:48;;;;;;;8.63;4.05;;;2.70;99.90;;;;;;5011129;28;20172;-77
2023/12/04 11:51:35;;;;;;;6.82;3.83;;;2.70;99.90;;;;;;4976594;28;20038;-77
2023/12/04 11:54:03;;;;;;;6.22;2.78;;;2.70;99.90;;;;;;5003400;28;20441;-77
2023/12/04 11:56:29;;;;;;;8.52;4.50;;;2.70;99.90;;;;;;4970694;28;20038;-78
2023/12/04 11:58:55;;;;;;;7.80;3.63;;;2.80;99.90;;;;;;4985108;28;20038;-77
2023/12/04 12:01:20;;;;;;;8.32;5.15;;;2.80;99.90;;;;;;4985700;28;20034;-77
2023/12/04 12:03:50;;;;;;;8.18;4.78;;;2.80;99.90;;;;;;4978032;28;20034;-77
2023/12/04 12:06:16;;;;;;;9.88;4.85;;;2.80;99.90;;;;;;4991689;28;20657;-78
2023/12/04 12:08:41;;;;;;;10.00;5.35;;;2.90;99.90;;;;;;5006374;28;20052;-76
2023/12/04 12:11:07;;;;;;;8.77;5.10;;;2.90;99.90;;;;;;5002775;28;20034;-78
2023/12/04 12:13:34;;;;;;;11.48;5.40;;;2.80;99.90;;;;;;4962937;28;20397;-78
2023/12/04 12:16:02;;;;;;;12.18;5.97;;;2.80;99.90;;;;;;4991801;28;20034;-78
2023/12/04 12:18:27;;;;;;;8.52;5.35;;;2.90;99.90;;;;;;5005585;28;20479;-76
2023/12/04 12:20:55;;;;;;;8.68;4.43;;;2.80;99.90;;;;;;4990267;28;20224;-76
2023/12/04 12:23:21;;;;;;;6.68;3.78;;;2.90;99.90;;;;;;4998446;28;20066;-78
2023/12/04 12:25:47;;;;;;;10.35;5.75;;;2.80;99.90;;;;;;4990816;28;20054;-79
2023/12/04 12:28:13;;;;;;;9.10;4.65;;;2.80;99.90;;;;;;5004945;28;20037;-79
2023/12/04 12:30:38;;;;;;;10.55;5.88;;;2.80;99.90;;;;;;4994983;28;20060;-79
2023/12/04 12:33:04;;;;;;;8.07;4.97;;;2.80;99.90;;;;;;4996271;28;20057;-79
2023/12/04 12:35:31;;;;;;;8.30;4.85;;;2.80;99.90;;;;;;5001419;28;20845;-79
2023/12/04 12:37:56;;;;;;;11.65;6.13;;;2.90;99.90;;;;;;4955938;28;20076;-81
2023/12/04 12:40:22;;;;;;;12.10;7.35;;;2.90;99.90;;;;;;4981182;28;20026;-80
2023/12/04 12:42:48;;;;;;;12.25;6.28;;;2.90;99.90;;;;;;5003559;28;20064;-80
2023/12/04 12:45:14;;;;;;;10.55;5.03;;;2.80;99.90;;;;;;4970776;28;20027;-80